Time;durP1;ratioP1;P1;durP2;ratioP2;P2;SDS_P1;SDS_P2;PMS_P1;PMS_P2;Temp;Humidity;BMP_temperature;BMP_pressure;BME280_temperature;BME280_humidity;BME280_pressure;Samples;Min_cycle;Max_cycle;Signal;HPM_P1;HPM_P2
2022/10/10 00:01:37;;;;;;;;;;;;;;;23.88;45.19;94400.19;4975103;28;9058;-60
2022/10/10 00:04:07;;;;;;;;;;;;;;;23.88;45.50;94397.44;4973956;28;7431;-60
2022/10/10 00:06:38;;;;;;;;;;;;;;;23.88;45.47;94394.69;4976580;28;7326;-60
2022/10/10 00:09:05;;;;;;;;;;;;;;;23.87;45.09;94385.72;5027921;28;8268;-60
2022/10/10 00:11:44;;;;;;;;;;;;;;;23.89;45.60;94393.44;5004230;28;7223;-60
2022/10/10 00:14:11;;;;;;;;;;;;;;;23.87;45.57;94396.69;5003858;28;7023;-60
2022/10/10 00:16:39;;;;;;;;;;;;;;;23.86;45.06;94397.16;5008780;28;7244;-60
2022/10/10 00:19:10;;;;;;;;;;;;;;;23.85;45.01;94398.44;5075397;28;7351;-60
2022/10/10 00:21:37;;;;;;;;;;;;;;;23.84;45.70;94396.91;5078512;28;9503;-60
2022/10/10 00:24:11;;;;;;;;;;;;;;;23.85;45.05;94390.19;5088281;28;7048;-60
2022/10/10 00:26:40;;;;;;;;;;;;;;;23.86;45.78;94400.66;5071470;28;7271;-60
2022/10/10 00:29:13;;;;;;;;;;;;;;;23.82;45.65;94393.94;5054940;28;9314;-60
2022/10/10 00:31:47;;;;;;;;;;;;;;;23.84;45.07;94392.19;5091026;28;7275;-59
2022/10/10 00:34:14;;;;;;;;;;;;;;;23.83;45.62;94389.94;5071736;28;9588;-60
2022/10/10 00:36:52;;;;;;;;;;;;;;;23.85;45.81;94395.69;5087480;28;8807;-60
2022/10/10 00:39:19;;;;;;;;;;;;;;;23.83;45.29;94396.19;5073142;28;8728;-60
2022/10/10 00:42:15;;;;;;;;;;;;;;;23.84;45.30;94386.69;5091650;28;7194;-61
2022/10/10 00:45:23;;;;;;;;;;;;;;;23.84;45.33;94399.66;5020500;28;9432;-60
2022/10/10 00:47:51;;;;;;;;;;;;;;;23.84;45.22;94394.19;5021658;28;7396;-60
2022/10/10 00:50:21;;;;;;;;;;;;;;;23.83;45.55;94389.94;5022888;28;10478;-60
2022/10/10 00:52:48;;;;;;;;;;;;;;;23.83;45.60;94389.94;5023817;28;7398;-60
2022/10/10 00:55:15;;;;;;;;;;;;;;;23.81;45.35;94392.44;5026442;28;7332;-60
2022/10/10 00:57:48;;;;;;;;;;;;;;;23.80;45.11;94386.19;5027515;28;7228;-60
2022/10/10 01:00:23;;;;;;;;;;;;;;;23.81;45.54;94386.94;5027509;28;7311;-60
2022/10/10 01:02:49;;;;;;;;;;;;;;;23.81;44.58;94387.72;5027846;28;9226;-60
2022/10/10 01:05:16;;;;;;;;;;;;;;;23.83;45.15;94390.69;5006727;28;7095;-60
2022/10/10 01:07:54;;;;;;;;;;;;;;;23.82;45.85;94397.44;5003478;28;7491;-60
2022/10/10 01:10:43;;;;;;;;;;;;;;;23.81;45.56;94401.44;5020678;28;7105;-60
2022/10/10 01:13:39;;;;;;;;;;;;;;;23.80;45.58;94401.91;5003601;28;7037;-60
2022/10/10 01:16:40;;;;;;;;;;;;;;;23.80;45.36;94390.94;5025267;28;8938;-61
2022/10/10 01:19:09;;;;;;;;;;;;;;;23.79;45.64;94383.97;5002975;28;7343;-60
2022/10/10 01:22:13;;;;;;;;;;;;;;;23.81;45.69;94384.22;4995782;28;7212;-60
2022/10/10 01:24:58;;;;;;;;;;;;;;;23.81;45.14;94386.94;4991782;28;7387;-60
2022/10/10 01:27:32;;;;;;;;;;;;;;;23.80;45.57;94382.69;4991208;28;8492;-60
2022/10/10 01:30:04;;;;;;;;;;;;;;;23.83;45.63;94378.97;4993729;28;7375;-60
2022/10/10 01:32:51;;;;;;;;;;;;;;;23.82;45.09;94382.94;5004345;28;8282;-60
2022/10/10 01:35:23;;;;;;;;;;;;;;;23.82;45.33;94378.19;5000990;28;7270;-60
2022/10/10 01:38:04;;;;;;;;;;;;;;;23.81;45.24;94379.47;4989023;28;7068;-60
2022/10/10 01:40:41;;;;;;;;;;;;;;;23.81;45.19;94382.22;4992574;28;7125;-60
2022/10/10 01:43:11;;;;;;;;;;;;;;;23.80;45.15;94380.69;5006283;28;7120;-60
2022/10/10 01:45:46;;;;;;;;;;;;;;;23.81;45.01;94386.94;5009115;28;6986;-60
2022/10/10 01:48:16;;;;;;;;;;;;;;;23.81;45.36;94375.97;5009478;28;7029;-60
2022/10/10 01:51:31;;;;;;;;;;;;;;;23.81;45.34;94381.47;5001325;28;7381;-60
2022/10/10 01:54:21;;;;;;;;;;;;;;;23.81;45.06;94387.72;4985002;28;9440;-60
2022/10/10 01:57:07;;;;;;;;;;;;;;;23.81;45.63;94386.94;5000359;28;9056;-59
2022/10/10 01:59:39;;;;;;;;;;;;;;;23.81;45.89;94381.47;5012989;28;8497;-60
2022/10/10 02:02:25;;;;;;;;;;;;;;;23.81;45.14;94386.94;5015793;28;7191;-60
2022/10/10 02:05:03;;;;;;;;;;;;;;;23.80;44.65;94377.19;5036542;28;9230;-60
2022/10/10 02:07:41;;;;;;;;;;;;;;;23.79;45.17;94375.72;5005250;28;9376;-60
2022/10/10 02:10:10;;;;;;;;;;;;;;;23.78;45.18;94377.72;5047766;28;7281;-60
2022/10/10 02:12:41;;;;;;;;;;;;;;;23.78;44.78;94377.72;5009312;28;8639;-60
2022/10/10 02:15:15;;;;;;;;;;;;;;;23.80;45.55;94374.44;5011818;28;8707;-60
2022/10/10 02:17:49;;;;;;;;;;;;;;;23.78;45.79;94379.69;5022980;28;7178;-60
2022/10/10 02:20:24;;;;;;;;;;;;;;;23.78;44.94;94371.47;5046365;28;7150;-61
2022/10/10 02:22:55;;;;;;;;;;;;;;;23.77;45.31;94369.97;5011193;28;7395;-60
2022/10/10 02:25:38;;;;;;;;;;;;;;;23.77;44.87;94369.97;4995757;28;7464;-60
2022/10/10 02:28:28;;;;;;;;;;;;;;;23.77;45.25;94369.97;5010104;28;7270;-60
2022/10/10 02:31:33;;;;;;;;;;;;;;;23.77;44.98;94367.22;5043271;28;7049;-61
2022/10/10 02:34:25;;;;;;;;;;;;;;;23.76;45.53;94373.97;5012080;28;7868;-61
2022/10/10 02:37:00;;;;;;;;;;;;;;;23.75;45.71;94366.97;4996224;28;9016;-60
2022/10/10 02:39:32;;;;;;;;;;;;;;;23.75;45.69;94372.47;5009800;28;8849;-60
2022/10/10 02:41:58;;;;;;;;;;;;;;;23.74;45.34;94370.97;4994250;28;7289;-60
2022/10/10 02:44:28;;;;;;;;;;;;;;;23.74;45.23;94368.97;5010333;28;7633;-61
2022/10/10 02:47:04;;;;;;;;;;;;;;;23.74;45.20;94368.22;4995877;28;9315;-61
2022/10/10 02:49:33;;;;;;;;;;;;;;;23.74;45.04;94363.47;5011187;28;7050;-60
2022/10/10 02:51:59;;;;;;;;;;;;;;;23.74;45.32;94368.97;4995617;28;7408;-60
2022/10/10 02:54:26;;;;;;;;;;;;;;;23.75;45.56;94373.19;4995911;28;6938;-61
2022/10/10 02:56:54;;;;;;;;;;;;;;;23.74;44.99;94370.97;4995526;28;7270;-61
2022/10/10 02:59:23;;;;;;;;;;;;;;;23.73;45.58;94370.22;5011668;28;7370;-61
2022/10/10 03:02:05;;;;;;;;;;;;;;;23.73;45.28;94361.22;5011767;28;7378;-61
2022/10/10 03:04:47;;;;;;;;;;;;;;;23.75;45.52;94373.19;5012038;28;8393;-61
2022/10/10 03:07:22;;;;;;;;;;;;;;;23.74;45.42;94374.47;4994849;28;7759;-60
2022/10/10 03:10:00;;;;;;;;;;;;;;;23.73;45.31;94375.69;5020353;28;7224;-61
2022/10/10 03:12:26;;;;;;;;;;;;;;;23.70;45.90;94373.97;5075812;28;7080;-61
2022/10/10 03:15:03;;;;;;;;;;;;;;;23.70;45.43;94370.47;5076444;28;7056;-61
2022/10/10 03:17:42;;;;;;;;;;;;;;;23.71;45.50;94371.94;5094387;28;7193;-60
2022/10/10 03:20:10;;;;;;;;;;;;;;;23.71;45.26;94377.44;5075193;28;7297;-61
2022/10/10 03:22:36;;;;;;;;;;;;;;;23.71;45.07;94372.69;5074175;28;8859;-61
2022/10/10 03:25:09;;;;;;;;;;;;;;;23.72;44.63;94373.47;5075323;28;7405;-60
2022/10/10 03:27:51;;;;;;;;;;;;;;;23.70;45.22;94376.72;5070031;28;7301;-60
2022/10/10 03:30:17;;;;;;;;;;;;;;;23.71;45.42;94377.44;5093228;28;7051;-60
2022/10/10 03:32:55;;;;;;;;;;;;;;;23.71;45.57;94369.97;5081473;28;7414;-60
2022/10/10 03:35:29;;;;;;;;;;;;;;;23.71;45.17;94372.69;5075366;28;6972;-60
2022/10/10 03:37:59;;;;;;;;;;;;;;;23.71;44.76;94372.69;5071769;28;7213;-61
2022/10/10 03:40:30;;;;;;;;;;;;;;;23.70;45.08;94373.97;5070780;28;6982;-61
2022/10/10 03:43:05;;;;;;;;;;;;;;;23.70;45.27;94376.72;5075632;28;7188;-60
2022/10/10 03:45:46;;;;;;;;;;;;;;;23.71;45.00;94369.97;5075775;28;7255;-60
2022/10/10 03:48:13;;;;;;;;;;;;;;;23.70;45.01;94373.97;5074923;28;9044;-59
2022/10/10 03:50:41;;;;;;;;;;;;;;;23.69;45.51;94377.94;5074871;28;7380;-60
2022/10/10 03:53:10;;;;;;;;;;;;;;;23.70;45.77;94373.22;5082524;28;6977;-61
2022/10/10 03:55:41;;;;;;;;;;;;;;;23.69;45.51;94371.69;5093358;28;7210;-60
2022/10/10 03:58:15;;;;;;;;;;;;;;;23.68;45.59;94378.44;5074832;28;7285;-61
2022/10/10 04:00:51;;;;;;;;;;;;;;;23.70;45.65;94381.44;5075082;28;7142;-61
2022/10/10 04:03:20;;;;;;;;;;;;;;;23.68;45.66;94376.47;5074872;28;7347;-60
2022/10/10 04:05:54;;;;;;;;;;;;;;;23.70;45.42;94370.47;5075301;28;7378;-61
2022/10/10 04:08:32;;;;;;;;;;;;;;;23.70;44.92;94373.22;5075280;28;8430;-61
2022/10/10 04:11:04;;;;;;;;;;;;;;;23.70;45.49;94375.97;5073199;28;9212;-61
2022/10/10 04:13:55;;;;;;;;;;;;;;;23.70;45.42;94376.72;5075390;28;9190;-61
2022/10/10 04:16:25;;;;;;;;;;;;;;;23.69;45.57;94366.22;5075022;28;7110;-61
2022/10/10 04:18:50;;;;;;;;;;;;;;;23.70;45.43;94373.97;5092760;28;7241;-60
2022/10/10 04:21:26;;;;;;;;;;;;;;;23.72;45.08;94373.47;5074977;28;7324;-60
2022/10/10 04:23:59;;;;;;;;;;;;;;;23.70;44.74;94370.47;5074311;28;7505;-60
2022/10/10 04:26:25;;;;;;;;;;;;;;;23.65;45.28;94368.47;5056447;28;9434;-60
2022/10/10 04:28:51;;;;;;;;;;;;;;;23.66;45.36;94367.22;5088432;28;7228;-61
2022/10/10 04:31:21;;;;;;;;;;;;;;;23.67;45.46;94371.44;5073477;28;7197;-61
2022/10/10 04:33:47;;;;;;;;;;;;;;;23.66;45.53;94370.69;5091672;28;8584;-61
2022/10/10 04:36:12;;;;;;;;;;;;;;;23.68;45.24;94370.22;5087028;28;9508;-60
2022/10/10 04:38:41;;;;;;;;;;;;;;;23.67;45.21;94365.97;5065546;28;9424;-61
2022/10/10 04:41:08;;;;;;;;;;;;;;;23.68;45.24;94367.47;5084170;28;7297;-61
2022/10/10 04:43:53;;;;;;;;;;;;;;;23.65;45.24;94371.19;5072698;28;7354;-61
2022/10/10 04:46:34;;;;;;;;;;;;;;;23.66;45.06;94369.97;5073706;28;6989;-61
2022/10/10 04:49:03;;;;;;;;;;;;;;;23.65;45.24;94368.47;5091945;28;7207;-60
2022/10/10 04:51:29;;;;;;;;;;;;;;;23.64;45.02;94366.97;5073445;28;7431;-61
2022/10/10 04:53:55;;;;;;;;;;;;;;;23.63;44.94;94373.69;5074014;28;7193;-61
2022/10/10 04:56:21;;;;;;;;;;;;;;;23.62;45.24;94372.94;5091807;28;6982;-60
2022/10/10 04:58:55;;;;;;;;;;;;;;;23.60;45.23;94367.19;5072274;28;9670;-60
2022/10/10 05:01:20;;;;;;;;;;;;;;;23.60;45.08;94369.94;5083955;28;7051;-60
2022/10/10 05:03:50;;;;;;;;;;;;;;;23.60;45.22;94367.19;5074360;28;7346;-61
2022/10/10 05:06:16;;;;;;;;;;;;;;;23.63;45.75;94362.72;5072369;28;9007;-60
2022/10/10 05:08:47;;;;;;;;;;;;;;;23.63;45.34;94365.47;5070331;28;9042;-60
2022/10/10 05:11:15;;;;;;;;;;;;;;;23.62;45.46;94363.97;5073248;28;7382;-61
2022/10/10 05:13:43;;;;;;;;;;;;;;;23.62;45.47;94369.47;5090221;28;9068;-61
2022/10/10 05:16:20;;;;;;;;;;;;;;;23.62;45.49;94370.19;5073696;28;8336;-61
2022/10/10 05:18:49;;;;;;;;;;;;;;;23.61;45.55;94362.47;5062865;28;8966;-61
2022/10/10 05:21:19;;;;;;;;;;;;;;;23.63;45.09;94370.97;5045097;28;9335;-61
2022/10/10 05:23:55;;;;;;;;;;;;;;;23.58;45.27;94363.44;5073562;28;7920;-60
2022/10/10 05:26:30;;;;;;;;;;;;;;;23.56;45.49;94371.44;5091894;28;7520;-61
2022/10/10 05:29:02;;;;;;;;;;;;;;;23.58;45.71;94379.94;5074045;28;8692;-61
2022/10/10 05:31:30;;;;;;;;;;;;;;;23.58;45.17;94383.44;5072875;28;9053;-60
2022/10/10 05:34:02;;;;;;;;;;;;;;;23.60;45.00;94383.69;5073811;28;7251;-61
2022/10/10 05:36:38;;;;;;;;;;;;;;;23.59;45.88;94375.94;5067140;28;7207;-61
2022/10/10 05:39:22;;;;;;;;;;;;;;;23.55;45.20;94373.47;5090748;28;7567;-60
2022/10/10 05:41:50;;;;;;;;;;;;;;;23.58;45.58;94379.94;5070298;28;7441;-60
2022/10/10 05:44:27;;;;;;;;;;;;;;;23.57;45.36;94379.19;5076668;28;7378;-60
2022/10/10 05:46:54;;;;;;;;;;;;;;;23.60;45.07;94391.16;5073650;28;7263;-60
2022/10/10 05:49:20;;;;;;;;;;;;;;;23.58;45.57;94386.16;5077658;28;7293;-61
2022/10/10 05:51:48;;;;;;;;;;;;;;;23.58;44.95;94388.16;5075650;28;9490;-61
2022/10/10 05:54:16;;;;;;;;;;;;;;;23.56;45.52;94382.41;5069023;28;9349;-61
2022/10/10 05:56:42;;;;;;;;;;;;;;;23.59;45.23;94387.69;5077411;28;7103;-60
2022/10/10 05:59:18;;;;;;;;;;;;;;;23.59;45.44;94393.19;5095380;28;9029;-61
2022/10/10 06:01:48;;;;;;;;;;;;;;;23.58;44.83;94388.16;5077288;28;8382;-61
2022/10/10 06:04:15;;;;;;;;;;;;;;;23.58;45.41;94390.91;5089461;28;9259;-60
2022/10/10 06:06:43;;;;;;;;;;;;;;;23.56;45.33;94387.91;5073600;28;7236;-60
2022/10/10 06:09:23;;;;;;;;;;;;;;;23.55;46.03;94394.66;5076144;28;9453;-61
2022/10/10 06:11:49;;;;;;;;;;;;;;;23.55;45.44;94398.16;5085570;28;7816;-60
2022/10/10 06:14:15;;;;;;;;;;;;;;;23.55;45.73;94400.91;5077089;28;7113;-60
2022/10/10 06:16:44;;;;;;;;;;;;;;;23.53;45.82;94399.91;5093944;28;6996;-61
2022/10/10 06:19:22;;;;;;;;;;;;;;;23.55;45.51;94397.41;5077062;28;8992;-60
2022/10/10 06:21:50;;;;;;;;;;;;;;;23.55;45.45;94409.16;5076960;28;7296;-60
2022/10/10 06:24:19;;;;;;;;;;;;;;;23.56;45.55;94412.63;5076907;28;7210;-61
2022/10/10 06:27:12;;;;;;;;;;;;;;;23.57;45.27;94414.13;5093508;28;7400;-60
2022/10/10 06:29:39;;;;;;;;;;;;;;;23.57;45.02;94411.38;4995549;28;7237;-60
2022/10/10 06:32:40;;;;;;;;;;;;;;;23.57;45.24;94412.16;4998109;28;7112;-60
2022/10/10 06:35:24;;;;;;;;;;;;;;;23.55;45.88;94411.13;4918519;29;9206;-61
2022/10/10 06:37:50;;;;;;;;;;;;;;;23.53;45.57;94410.88;4934665;29;7236;-60
2022/10/10 06:40:26;;;;;;;;;;;;;;;23.52;45.50;94409.38;4935041;29;7910;-60
2022/10/10 06:42:52;;;;;;;;;;;;;;;23.54;45.38;94420.59;4934040;29;7231;-60
2022/10/10 06:45:23;;;;;;;;;;;;;;;23.55;45.55;94422.13;4917090;29;6954;-61
2022/10/10 06:47:58;;;;;;;;;;;;;;;23.54;45.48;94417.84;4935151;29;7058;-60
2022/10/10 06:50:24;;;;;;;;;;;;;;;23.53;45.25;94413.63;4934837;29;6996;-61
2022/10/10 06:52:50;;;;;;;;;;;;;;;23.53;45.27;94421.88;4917946;29;8445;-60
2022/10/10 06:55:18;;;;;;;;;;;;;;;23.51;45.42;94421.63;4933315;29;7008;-60
2022/10/10 06:57:44;;;;;;;;;;;;;;;23.52;45.61;94425.84;4933646;29;7149;-61
2022/10/10 07:00:28;;;;;;;;;;;;;;;23.52;45.45;94428.59;4934642;29;9246;-60
2022/10/10 07:03:28;;;;;;;;;;;;;;;23.53;45.33;94435.59;4933974;29;7271;-61
2022/10/10 07:06:09;;;;;;;;;;;;;;;23.54;45.47;94446.06;4892789;29;7161;-60
2022/10/10 07:08:39;;;;;;;;;;;;;;;23.54;45.15;94434.31;4956873;28;7231;-61
2022/10/10 07:11:29;;;;;;;;;;;;;;;23.53;45.53;94438.34;5002877;28;9344;-60
2022/10/10 07:13:57;;;;;;;;;;;;;;;23.54;45.45;94434.31;5015493;28;9321;-60
2022/10/10 07:16:30;;;;;;;;;;;;;;;23.54;45.22;94445.31;5004736;28;7020;-60
2022/10/10 07:19:12;;;;;;;;;;;;;;;23.54;45.71;94448.06;5034125;28;7577;-61
2022/10/10 07:21:50;;;;;;;;;;;;;;;23.52;45.55;94448.56;5044743;28;8824;-60
2022/10/10 07:24:22;;;;;;;;;;;;;;;23.53;45.36;94458.28;5007130;28;8304;-61
2022/10/10 07:26:59;;;;;;;;;;;;;;;23.53;45.40;94457.56;5022339;28;7376;-61
2022/10/10 07:29:36;;;;;;;;;;;;;;;23.51;45.65;94458.03;5006334;28;9033;-61
2022/10/10 07:32:10;;;;;;;;;;;;;;;23.51;45.75;94460.03;5012115;28;7356;-60
2022/10/10 07:34:43;;;;;;;;;;;;;;;23.51;45.99;94460.03;5032190;28;7087;-60
2022/10/10 07:37:23;;;;;;;;;;;;;;;23.51;45.58;94471.03;5031527;28;9021;-61
2022/10/10 07:40:01;;;;;;;;;;;;;;;23.50;45.49;94472.25;5019735;28;7389;-61
2022/10/10 07:42:28;;;;;;;;;;;;;;;23.50;45.37;94469.50;5068841;28;7320;-60
2022/10/10 07:44:54;;;;;;;;;;;;;;;23.49;45.82;94468.03;5093609;28;9043;-61
2022/10/10 07:47:24;;;;;;;;;;;;;;;23.49;45.65;94477.00;5088670;28;7166;-61
2022/10/10 07:49:50;;;;;;;;;;;;;;;23.49;45.83;94482.47;5075420;28;7691;-61
2022/10/10 07:52:18;;;;;;;;;;;;;;;23.50;45.83;94485.97;5078506;28;7049;-60
2022/10/10 07:54:44;;;;;;;;;;;;;;;23.49;46.26;94490.00;5074857;28;9756;-61
2022/10/10 07:57:15;;;;;;;;;;;;;;;23.46;45.57;94482.72;5074529;28;10045;-60
2022/10/10 07:59:44;;;;;;;;;;;;;;;23.49;45.30;94485.22;5074115;28;7309;-60
2022/10/10 08:02:10;;;;;;;;;;;;;;;23.48;45.41;94482.97;5091107;28;6995;-60
2022/10/10 08:04:39;;;;;;;;;;;;;;;23.48;45.61;94482.97;5090264;28;7400;-60
2022/10/10 08:07:09;;;;;;;;;;;;;;;23.50;45.97;94486.75;5064211;28;7180;-60
2022/10/10 08:09:41;;;;;;;;;;;;;;;23.47;45.39;94487.72;5055247;28;7240;-60
2022/10/10 08:12:09;;;;;;;;;;;;;;;23.45;45.69;94489.44;5069331;28;7359;-60
2022/10/10 08:14:35;;;;;;;;;;;;;;;23.44;45.78;94485.97;5070934;28;7068;-60
2022/10/10 08:17:03;;;;;;;;;;;;;;;23.44;46.05;94496.19;5092743;28;7315;-60
2022/10/10 08:19:35;;;;;;;;;;;;;;;23.44;45.79;94494.22;5063356;28;9048;-61
2022/10/10 08:22:11;;;;;;;;;;;;;;;23.45;45.78;94494.94;5073912;28;7451;-61
2022/10/10 08:24:47;;;;;;;;;;;;;;;23.44;45.81;94499.69;5063082;28;7242;-60
2022/10/10 08:27:18;;;;;;;;;;;;;;;23.43;45.49;94494.69;5074473;28;8999;-61
2022/10/10 08:29:45;;;;;;;;;;;;;;;23.41;45.84;94492.44;5089389;28;9234;-60
2022/10/10 08:32:13;;;;;;;;;;;;;;;23.40;46.32;94501.19;5068950;28;7308;-61
2022/10/10 08:34:41;;;;;;;;;;;;;;;23.39;45.84;94505.91;5071294;28;7185;-60
2022/10/10 08:37:17;;;;;;;;;;;;;;;23.39;45.85;94502.41;5075752;28;7226;-61
2022/10/10 08:39:46;;;;;;;;;;;;;;;23.39;46.40;94491.44;5074253;28;7185;-61
2022/10/10 08:42:23;;;;;;;;;;;;;;;23.40;46.57;94501.94;5092949;28;8791;-61
2022/10/10 08:45:04;;;;;;;;;;;;;;;23.39;46.24;94496.91;5092476;28;9449;-61
2022/10/10 08:47:40;;;;;;;;;;;;;;;23.38;46.30;94503.66;5074298;28;7331;-61
2022/10/10 08:50:14;;;;;;;;;;;;;;;23.39;46.16;94499.66;5089094;28;7789;-61
2022/10/10 08:52:53;;;;;;;;;;;;;;;23.40;46.47;94498.44;5081544;28;7313;-61
2022/10/10 08:55:35;;;;;;;;;;;;;;;23.40;46.39;94501.19;5074205;28;7302;-60
2022/10/10 08:58:13;;;;;;;;;;;;;;;23.39;46.16;94499.66;5073836;28;9013;-61
2022/10/10 09:01:09;;;;;;;;;;;;;;;23.39;46.48;94505.91;5074027;28;8511;-60
2022/10/10 09:03:58;;;;;;;;;;;;;;;23.41;45.90;94513.66;5074150;28;7015;-61
2022/10/10 09:07:04;;;;;;;;;;;;;;;23.40;46.65;94501.19;5073583;28;7072;-61
2022/10/10 09:10:07;;;;;;;;;;;;;;;23.41;46.56;94502.66;5074524;28;8779;-60
2022/10/10 09:13:24;;;;;;;;;;;;;;;23.40;46.68;94498.44;5078021;28;7513;-60
2022/10/10 09:15:56;;;;;;;;;;;;;;;23.36;46.51;94498.66;5084078;28;7204;-60
2022/10/10 09:18:52;;;;;;;;;;;;;;;23.39;46.34;94505.91;5075143;28;7251;-60
2022/10/10 09:21:29;;;;;;;;;;;;;;;23.39;46.07;94505.91;5078235;28;7359;-61
2022/10/10 09:24:39;;;;;;;;;;;;;;;23.41;46.59;94506.16;5077817;28;6992;-60
2022/10/10 09:27:22;;;;;;;;;;;;;;;23.38;46.78;94501.66;5086393;28;7135;-61
2022/10/10 09:30:19;;;;;;;;;;;;;;;23.38;46.41;94509.16;5072885;28;7016;-61
2022/10/10 09:32:54;;;;;;;;;;;;;;;23.37;46.82;94502.16;5076982;28;7648;-60
2022/10/10 09:35:41;;;;;;;;;;;;;;;23.38;46.17;94496.16;5068801;28;7317;-61
2022/10/10 09:38:21;;;;;;;;;;;;;;;23.41;46.17;94502.66;5077582;28;8855;-60
2022/10/10 09:41:19;;;;;;;;;;;;;;;23.39;46.67;94502.41;5077957;28;9081;-61
2022/10/10 09:44:08;;;;;;;;;;;;;;;23.40;46.48;94503.94;5074493;28;7268;-60
2022/10/10 09:46:44;;;;;;;;;;;;;;;23.41;46.47;94508.16;5093787;28;7352;-60
2022/10/10 09:49:15;;;;;;;;;;;;;;;23.41;46.89;94506.16;5071210;28;6997;-61
2022/10/10 09:51:45;;;;;;;;;;;;;;;23.43;46.41;94516.66;5069022;28;7301;-61
2022/10/10 09:54:14;;;;;;;;;;;;;;;23.41;46.39;94510.91;5069613;28;7130;-60
2022/10/10 09:56:54;;;;;;;;;;;;;;;23.42;46.29;94509.66;5091935;28;9305;-61
2022/10/10 09:59:46;;;;;;;;;;;;;;;23.40;46.72;94517.66;5093740;28;10408;-60
2022/10/10 10:02:21;;;;;;;;;;;;;;;23.39;46.58;94516.91;5075909;28;9046;-60
2022/10/10 10:04:52;;;;;;;;;;;;;;;23.39;46.55;94511.41;5072265;28;7365;-60
2022/10/10 10:07:47;;;;;;;;;;;;;;;23.40;46.50;94517.66;5071288;28;8544;-61
2022/10/10 10:10:29;;;;;;;;;;;;;;;23.39;46.24;94516.13;5071785;28;8743;-60
2022/10/10 10:12:56;;;;;;;;;;;;;;;23.37;46.18;94519.38;5085535;28;7259;-61
2022/10/10 10:15:30;;;;;;;;;;;;;;;23.38;46.56;94520.13;5093797;28;7345;-60
2022/10/10 10:18:20;;;;;;;;;;;;;;;23.37;46.48;94521.38;5073848;28;8888;-61
2022/10/10 10:20:50;;;;;;;;;;;;;;;23.36;46.53;94517.13;5074950;28;7270;-60
2022/10/10 10:23:32;;;;;;;;;;;;;;;23.34;46.64;94520.34;5075530;28;9160;-61
2022/10/10 10:26:19;;;;;;;;;;;;;;;23.33;46.90;94521.63;5095084;28;9060;-60
2022/10/10 10:28:47;;;;;;;;;;;;;;;23.35;46.27;94521.13;5076002;28;7201;-61
2022/10/10 10:31:51;;;;;;;;;;;;;;;23.35;46.83;94516.38;5077137;28;6872;-61
2022/10/10 10:34:38;;;;;;;;;;;;;;;23.34;47.05;94514.13;5078534;28;9020;-61
2022/10/10 10:37:27;;;;;;;;;;;;;;;23.33;46.77;94516.13;5076883;28;7315;-61
2022/10/10 10:39:58;;;;;;;;;;;;;;;23.31;46.55;94506.84;5068273;28;7072;-60
2022/10/10 10:43:04;;;;;;;;;;;;;;;23.36;47.21;94522.63;5079095;28;7360;-60
2022/10/10 10:46:11;;;;;;;;;;;;;;;23.36;46.95;94515.13;5083023;28;7411;-61
2022/10/10 10:48:46;;;;;;;;;;;;;;;23.34;46.76;94511.41;5024682;28;7000;-60
2022/10/10 10:51:26;;;;;;;;;;;;;;;23.33;47.12;94512.59;5010227;28;7287;-60
2022/10/10 10:54:24;;;;;;;;;;;;;;;23.33;47.33;94515.34;4993402;28;7265;-61
2022/10/10 10:57:10;;;;;;;;;;;;;;;23.33;46.53;94515.34;4995665;28;9366;-61
2022/10/10 11:00:05;;;;;;;;;;;;;;;23.35;47.00;94515.63;5009993;28;7829;-60
2022/10/10 11:06:36;;;;;;;;;;;;;;;23.38;46.86;94514.66;4935310;28;7673;-60
2022/10/10 11:09:05;;;;;;;;;;;;;;;23.40;47.06;94512.16;4915972;29;7288;-60
2022/10/10 11:11:41;;;;;;;;;;;;;;;23.39;47.14;94508.66;4925538;29;8020;-61
2022/10/10 11:14:51;;;;;;;;;;;;;;;23.41;46.95;94508.16;4933499;29;8367;-60
2022/10/10 11:17:38;;;;;;;;;;;;;;;23.40;46.68;94501.94;4895761;29;9373;-61
2022/10/10 11:20:14;;;;;;;;;;;;;;;23.41;46.93;94499.91;4896036;29;9284;-61
2022/10/10 11:23:23;;;;;;;;;;;;;;;23.39;46.71;94503.16;4896285;29;7156;-61
2022/10/10 11:26:05;;;;;;;;;;;;;;;23.41;46.79;94503.44;4910905;29;7250;-60
2022/10/10 11:29:03;;;;;;;;;;;;;;;23.43;46.94;94503.69;4914343;29;7202;-60
2022/10/10 11:32:01;;;;;;;;;;;;;;;23.43;46.73;94500.19;4922163;29;7082;-61
2022/10/10 11:35:14;;;;;;;;;;;;;;;23.46;46.79;94499.97;4914076;29;7754;-61
2022/10/10 11:37:57;;;;;;;;;;;;;;;23.46;46.62;94499.19;4899232;29;7192;-60
2022/10/10 11:41:12;;;;;;;;;;;;;;;23.48;47.18;94502.97;4913622;29;7068;-60
2022/10/10 11:44:03;;;;;;;;;;;;;;;23.50;47.30;94494.22;4922907;28;7231;-61
2022/10/10 11:46:32;;;;;;;;;;;;;;;23.53;47.25;94501.47;4927426;29;6903;-60
2022/10/10 11:49:05;;;;;;;;;;;;;;;23.57;47.21;94500.00;4933409;28;8747;-60
2022/10/10 11:52:02;;;;;;;;;;;;;;;23.55;47.19;94491.50;4940790;28;7148;-60
2022/10/10 11:54:53;;;;;;;;;;;;;;;23.58;46.87;94504.22;4937071;28;6978;-61
2022/10/10 11:57:45;;;;;;;;;;;;;;;23.61;47.16;94499.75;4954881;28;7253;-61
2022/10/10 12:00:13;;;;;;;;;;;;;;;23.60;46.96;94503.72;4942343;28;7195;-60
2022/10/10 12:02:44;;;;;;;;;;;;;;;23.58;47.59;94497.97;4952390;28;6977;-60
2022/10/10 12:05:27;;;;;;;;;;;;;;;23.61;47.27;94503.25;4944770;28;7284;-61
2022/10/10 12:08:35;;;;;;;;;;;;;;;23.63;46.96;94494.50;4925002;28;8372;-61
2022/10/10 12:11:17;;;;;;;;;;;;;;;23.64;46.79;94499.50;4989503;28;6997;-59
2022/10/10 12:13:51;;;;;;;;;;;;;;;23.64;47.06;94493.28;5012660;28;8126;-60
2022/10/10 12:16:32;;;;;;;;;;;;;;;23.66;47.12;94501.78;5030101;28;9026;-61
2022/10/10 12:19:17;;;;;;;;;;;;;;;23.66;46.95;94490.78;5017032;28;7328;-61
2022/10/10 12:22:28;;;;;;;;;;;;;;;23.64;47.07;94494.00;5050321;28;7629;-61
2022/10/10 12:25:20;;;;;;;;;;;;;;;23.66;47.03;94485.28;5004849;28;8310;-60
2022/10/10 12:28:13;;;;;;;;;;;;;;;23.65;46.82;94481.03;5003161;28;7226;-61
2022/10/10 12:30:51;;;;;;;;;;;;;;;23.62;46.99;94485.50;4935110;28;7407;-61
2022/10/10 12:33:21;;;;;;;;;;;;;;;23.62;47.43;94484.78;4935343;28;7191;-60
2022/10/10 12:35:48;;;;;;;;;;;;;;;23.66;46.85;94486.03;4934836;28;7573;-60
2022/10/10 12:38:21;;;;;;;;;;;;;;;23.68;47.59;94485.53;4934767;28;7159;-60
2022/10/10 12:40:56;;;;;;;;;;;;;;;23.69;47.36;94478.78;4950270;28;7165;-60
2022/10/10 12:43:36;;;;;;;;;;;;;;;23.72;47.21;94481.31;4924346;28;8224;-61
2022/10/10 12:46:17;;;;;;;;;;;;;;;23.76;47.40;94475.56;4947148;28;7662;-60
2022/10/10 12:49:22;;;;;;;;;;;;;;;23.78;46.80;94478.56;4954126;28;7011;-60
2022/10/10 12:52:07;;;;;;;;;;;;;;;23.79;46.83;94469.09;4964191;28;6996;-61
2022/10/10 12:54:40;;;;;;;;;;;;;;;23.81;46.77;94478.34;4954796;28;7212;-60
2022/10/10 12:57:16;;;;;;;;;;;;;;;23.83;47.45;94475.09;4970842;28;7004;-60
2022/10/10 13:00:14;;;;;;;;;;;;;;;23.84;47.66;94474.59;4955274;28;9106;-61
2022/10/10 13:02:45;;;;;;;;;;;;;;;23.84;47.47;94476.56;4966053;28;9578;-60
2022/10/10 13:05:19;;;;;;;;;;;;;;;23.87;47.49;94475.59;4970064;28;8879;-60
2022/10/10 13:07:49;;;;;;;;;;;;;;;23.93;47.01;94481.84;4989167;28;7205;-60
2022/10/10 13:10:26;;;;;;;;;;;;;;;23.90;47.27;94471.84;5008403;28;7426;-60
2022/10/10 13:13:20;;;;;;;;;;;;;;;23.90;47.69;94477.34;5008222;28;7054;-60
2022/10/10 13:15:55;;;;;;;;;;;;;;;23.92;47.44;94486.56;4991610;28;8709;-60
2022/10/10 13:18:36;;;;;;;;;;;;;;;23.93;47.06;94471.59;5008313;28;9020;-59
2022/10/10 13:21:06;;;;;;;;;;;;;;;23.93;47.00;94479.84;5023906;28;7350;-60
2022/10/10 13:23:48;;;;;;;;;;;;;;;23.96;46.96;94481.59;5007992;28;9712;-60
2022/10/10 13:26:49;;;;;;;;;;;;;;;24.01;46.86;94477.38;5051745;28;9166;-60
2022/10/10 13:29:23;;;;;;;;;;;;;;;24.04;47.41;94470.09;4991336;28;7697;-60
2022/10/10 13:32:12;;;;;;;;;;;;;;;24.07;47.65;94478.16;5004066;28;8361;-60
2022/10/10 13:34:44;;;;;;;;;;;;;;;24.08;47.65;94474.13;4992724;28;7269;-60
2022/10/10 13:37:17;;;;;;;;;;;;;;;24.13;47.26;94473.41;4993163;28;7260;-60
2022/10/10 13:39:44;;;;;;;;;;;;;;;24.12;47.73;94477.38;4993256;28;7197;-61
2022/10/10 13:42:37;;;;;;;;;;;;;;;24.13;46.85;94476.16;5009436;28;9421;-61
2022/10/10 13:45:23;;;;;;;;;;;;;;;24.12;47.54;94480.13;5007902;28;9026;-60
2022/10/10 13:48:11;;;;;;;;;;;;;;;24.11;46.63;94473.16;5002099;28;7001;-60
2022/10/10 13:50:42;;;;;;;;;;;;;;;24.15;47.19;94470.91;5004532;28;9849;-60
2022/10/10 13:53:27;;;;;;;;;;;;;;;24.18;46.32;94475.41;5007287;28;7239;-60
2022/10/10 13:56:19;;;;;;;;;;;;;;;24.16;46.64;94472.41;5009343;28;9649;-60